createdAt,value
2018-05-03T00:00:21.199Z,14.91
2018-05-03T00:01:21.144Z,14.89
2018-05-03T00:02:21.076Z,14.91
2018-05-03T00:03:21.021Z,14.91
2018-05-03T00:04:20.950Z,14.79
2018-05-03T00:05:20.886Z,14.69
2018-05-03T00:06:20.832Z,14.63
2018-05-03T00:07:20.778Z,14.72
2018-05-03T00:08:20.701Z,14.66
2018-05-03T00:09:20.639Z,14.69
2018-05-03T00:10:20.576Z,14.72
2018-05-03T00:11:20.510Z,14.81
2018-05-03T00:12:20.448Z,14.72
2018-05-03T00:13:20.386Z,14.69
2018-05-03T00:14:20.323Z,14.72
2018-05-03T00:15:20.259Z,14.63
2018-05-03T00:16:20.200Z,14.60
2018-05-03T00:17:20.136Z,14.50
2018-05-03T00:18:20.163Z,14.51
2018-05-03T00:19:20.013Z,14.50
2018-05-03T00:20:19.948Z,14.55
2018-05-03T00:21:19.901Z,14.51
2018-05-03T00:22:19.824Z,14.59
2018-05-03T00:23:19.759Z,14.55
2018-05-03T00:24:19.695Z,14.59
2018-05-03T00:25:19.632Z,14.65
2018-05-03T00:26:19.571Z,14.65
2018-05-03T00:27:19.508Z,14.66
2018-05-03T00:28:19.446Z,14.66
2018-05-03T00:29:19.384Z,14.65
2018-05-03T00:30:19.320Z,14.60
2018-05-03T00:31:19.255Z,14.68
2018-05-03T00:32:19.192Z,14.70
2018-05-03T00:33:19.136Z,14.68
2018-05-03T00:34:19.076Z,14.65
2018-05-03T00:35:19.006Z,14.58
2018-05-03T00:36:18.945Z,14.62
2018-05-03T00:37:18.879Z,14.65
2018-05-03T00:38:18.816Z,14.60
2018-05-03T00:39:18.755Z,14.58
2018-05-03T00:40:18.693Z,14.60
2018-05-03T00:41:18.627Z,14.60
2018-05-03T00:42:18.568Z,14.55
2018-05-03T00:43:18.505Z,14.62
2018-05-03T00:44:18.437Z,14.62
2018-05-03T00:45:18.375Z,14.63
2018-05-03T00:46:18.318Z,14.65
2018-05-03T00:47:18.255Z,14.69
2018-05-03T00:48:18.192Z,14.68
2018-05-03T00:49:18.126Z,14.70
2018-05-03T00:50:18.062Z,14.70
2018-05-03T00:51:18.001Z,14.66
2018-05-03T00:52:17.939Z,14.60
2018-05-03T00:53:17.876Z,14.69
2018-05-03T00:54:17.814Z,14.78
2018-05-03T00:55:17.748Z,14.73
2018-05-03T00:56:17.686Z,14.72
2018-05-03T00:57:17.622Z,14.70
2018-05-03T00:58:17.559Z,14.81
2018-05-03T00:59:17.496Z,14.72
2018-05-03T01:00:17.437Z,14.79
2018-05-03T01:01:17.372Z,14.73
2018-05-03T01:02:17.312Z,14.72
2018-05-03T01:03:17.246Z,14.72
2018-05-03T01:04:17.182Z,14.88
2018-05-03T01:05:17.123Z,14.81
2018-05-03T01:06:17.057Z,14.82
2018-05-03T01:07:16.992Z,14.86
2018-05-03T01:08:16.931Z,14.78
2018-05-03T01:09:16.878Z,14.81
2018-05-03T01:10:16.804Z,14.82
2018-05-03T01:11:16.746Z,14.88
2018-05-03T01:12:16.685Z,14.82
2018-05-03T01:13:16.617Z,14.82
2018-05-03T01:14:16.556Z,14.91
2018-05-03T01:15:16.495Z,14.85
2018-05-03T01:16:16.425Z,14.84
2018-05-03T01:17:16.365Z,14.86
2018-05-03T01:18:16.312Z,14.82
2018-05-03T01:19:16.240Z,14.77
2018-05-03T01:20:16.178Z,14.70
2018-05-03T01:21:16.116Z,14.72
2018-05-03T01:22:16.047Z,14.81
2018-05-03T01:23:15.987Z,14.70
2018-05-03T01:24:15.928Z,14.63
2018-05-03T01:25:15.860Z,14.63
2018-05-03T01:26:15.808Z,14.53
2018-05-03T01:27:15.737Z,14.60
2018-05-03T01:28:15.670Z,14.62
2018-05-03T01:29:15.610Z,14.62
2018-05-03T01:30:15.547Z,14.53
2018-05-03T01:31:15.483Z,14.41
2018-05-03T01:32:15.422Z,14.37
2018-05-03T01:33:15.361Z,14.50
2018-05-03T01:34:15.296Z,14.54
2018-05-03T01:35:15.231Z,14.58
2018-05-03T01:36:15.169Z,14.55
2018-05-03T01:37:15.105Z,14.51
2018-05-03T01:38:15.044Z,14.50
2018-05-03T01:39:14.980Z,14.50
2018-05-03T01:40:14.911Z,14.45
2018-05-03T01:41:14.851Z,14.36
2018-05-03T01:42:14.789Z,14.43
2018-05-03T01:43:14.726Z,14.40
2018-05-03T01:44:14.671Z,14.26
2018-05-03T01:45:14.602Z,14.22
2018-05-03T01:46:14.538Z,14.05
2018-05-03T01:47:14.472Z,13.96
2018-05-03T01:48:14.411Z,13.89
2018-05-03T01:49:14.366Z,13.81
2018-05-03T01:50:14.284Z,13.79
2018-05-03T01:51:14.223Z,13.78
2018-05-03T01:52:14.162Z,13.81
2018-05-03T01:53:14.092Z,13.78
2018-05-03T01:54:14.033Z,13.62
2018-05-03T01:55:13.968Z,13.67
2018-05-03T01:56:13.907Z,13.67
2018-05-03T01:57:13.843Z,13.72
2018-05-03T01:58:13.786Z,13.72
2018-05-03T01:59:13.711Z,13.78
2018-05-03T02:00:13.660Z,13.78
2018-05-03T02:01:13.583Z,13.70
2018-05-03T02:02:13.521Z,13.78
2018-05-03T02:03:13.467Z,13.78
2018-05-03T02:04:13.398Z,13.71
2018-05-03T02:05:13.330Z,13.77
2018-05-03T02:06:13.270Z,13.77
2018-05-03T02:07:13.204Z,13.71
2018-05-03T02:08:13.140Z,13.56
2018-05-03T02:09:13.076Z,13.60
2018-05-03T02:10:13.016Z,13.53
2018-05-03T02:11:12.950Z,13.62
2018-05-03T02:12:12.891Z,13.60
2018-05-03T02:13:12.824Z,13.72
2018-05-03T02:14:12.758Z,13.62
2018-05-03T02:15:12.695Z,13.68
2018-05-03T02:16:12.635Z,13.81
2018-05-03T02:17:12.575Z,13.81
2018-05-03T02:18:12.505Z,13.89
2018-05-03T02:19:12.443Z,13.90
2018-05-03T02:20:12.381Z,13.93
2018-05-03T02:21:12.314Z,13.89
2018-05-03T02:22:12.249Z,13.90
2018-05-03T02:23:12.185Z,13.90
2018-05-03T02:24:12.127Z,13.87
2018-05-03T02:25:12.059Z,13.87
2018-05-03T02:26:11.997Z,13.87
2018-05-03T02:27:11.931Z,13.96
2018-05-03T02:28:11.867Z,14.00
2018-05-03T02:29:11.804Z,13.97
2018-05-03T02:30:11.741Z,13.95
2018-05-03T02:31:11.679Z,13.96
2018-05-03T02:32:11.617Z,14.03
2018-05-03T02:33:11.577Z,13.97
2018-05-03T02:34:11.489Z,14.03
2018-05-03T02:35:11.422Z,14.03
2018-05-03T02:36:11.360Z,14.03
2018-05-03T02:37:11.296Z,14.00
2018-05-03T02:38:11.239Z,14.10
2018-05-03T02:39:11.171Z,14.07
2018-05-03T02:40:11.107Z,14.03
2018-05-03T02:41:11.045Z,14.11
2018-05-03T02:42:10.980Z,14.17
2018-05-03T02:43:10.917Z,14.08
2018-05-03T02:44:10.856Z,14.17
2018-05-03T02:45:10.791Z,14.08
2018-05-03T02:46:10.730Z,14.00
2018-05-03T02:47:10.665Z,13.95
2018-05-03T02:48:10.614Z,13.95
2018-05-03T02:49:10.534Z,13.86
2018-05-03T02:50:10.471Z,13.79
2018-05-03T02:51:10.422Z,13.74
2018-05-03T02:52:10.347Z,13.68
2018-05-03T02:53:10.284Z,13.63
2018-05-03T02:54:10.221Z,13.60
2018-05-03T02:55:10.151Z,13.67
2018-05-03T02:56:10.099Z,13.60
2018-05-03T02:57:10.037Z,13.62
2018-05-03T02:58:09.965Z,13.56
2018-05-03T02:59:09.895Z,13.54
2018-05-03T03:00:09.840Z,13.67
2018-05-03T03:01:09.773Z,13.63
2018-05-03T03:02:09.706Z,13.75
2018-05-03T03:03:09.645Z,13.77
2018-05-03T03:04:09.581Z,13.92
2018-05-03T03:05:09.520Z,13.90
2018-05-03T03:06:09.457Z,13.86
2018-05-03T03:07:09.390Z,13.77
2018-05-03T03:08:09.328Z,13.72
2018-05-03T03:09:09.263Z,13.77
2018-05-03T03:10:09.200Z,13.78
2018-05-03T03:11:09.134Z,13.85
2018-05-03T03:12:09.075Z,13.77
2018-05-03T03:13:09.010Z,13.62
2018-05-03T03:14:08.949Z,13.59
2018-05-03T03:15:08.881Z,13.67
2018-05-03T03:16:08.823Z,13.71
2018-05-03T03:17:08.755Z,13.65
2018-05-03T03:18:08.692Z,13.65
2018-05-03T03:19:08.636Z,13.57
2018-05-03T03:20:08.561Z,13.63
2018-05-03T03:21:08.500Z,13.53
2018-05-03T03:22:08.523Z,13.50
2018-05-03T03:23:08.374Z,13.59
2018-05-03T03:24:08.310Z,13.56
2018-05-03T03:25:08.247Z,13.57
2018-05-03T03:26:08.185Z,13.54
2018-05-03T03:27:08.116Z,13.62
2018-05-03T03:28:08.050Z,13.63
2018-05-03T03:29:07.992Z,13.68
2018-05-03T03:30:07.928Z,13.65
2018-05-03T03:31:07.863Z,13.63
2018-05-03T03:32:07.797Z,13.65
2018-05-03T03:33:07.736Z,13.67
2018-05-03T03:34:07.670Z,13.56
2018-05-03T03:35:07.709Z,13.68
2018-05-03T03:36:07.546Z,13.60
2018-05-03T03:37:07.482Z,13.44
2018-05-03T03:38:07.420Z,13.46
2018-05-03T03:39:07.355Z,13.52
2018-05-03T03:40:07.291Z,13.54
2018-05-03T03:41:07.224Z,13.60
2018-05-03T03:42:07.165Z,13.59
2018-05-03T03:43:07.106Z,13.54
2018-05-03T03:44:07.039Z,13.60
2018-05-03T03:45:06.973Z,13.60
2018-05-03T03:46:06.910Z,13.62
2018-05-03T03:47:06.849Z,13.57
2018-05-03T03:48:06.784Z,13.65
2018-05-03T03:49:06.723Z,13.60
2018-05-03T03:50:06.655Z,13.60
2018-05-03T03:51:06.593Z,13.49
2018-05-03T03:52:06.525Z,13.44
2018-05-03T03:53:06.512Z,13.46
2018-05-03T03:54:06.403Z,13.37
2018-05-03T03:55:06.336Z,13.38
2018-05-03T03:56:06.272Z,13.49
2018-05-03T03:57:06.209Z,13.56
2018-05-03T03:58:06.145Z,13.70
2018-05-03T03:59:06.186Z,13.78
2018-05-03T04:00:06.016Z,13.78
2018-05-03T04:01:05.955Z,13.78
2018-05-03T04:02:05.893Z,13.87
2018-05-03T04:03:05.823Z,13.85
2018-05-03T04:04:05.765Z,13.90
2018-05-03T04:05:05.693Z,13.90
2018-05-03T04:06:05.635Z,13.89
2018-05-03T04:07:05.576Z,13.89
2018-05-03T04:08:05.506Z,13.93
2018-05-03T04:09:05.448Z,13.86
2018-05-03T04:10:05.379Z,13.87
2018-05-03T04:11:05.313Z,13.86
2018-05-03T04:12:05.252Z,13.93
2018-05-03T04:13:05.188Z,13.93
2018-05-03T04:14:05.126Z,13.92
2018-05-03T04:15:05.063Z,13.93
2018-05-03T04:16:05.002Z,13.93
2018-05-03T04:17:04.938Z,13.93
2018-05-03T04:18:04.867Z,13.83
2018-05-03T04:19:04.812Z,13.95
2018-05-03T04:20:04.746Z,13.97
2018-05-03T04:21:04.679Z,13.86
2018-05-03T04:22:04.628Z,13.97
2018-05-03T04:23:04.557Z,14.04
2018-05-03T04:24:04.487Z,14.04
2018-05-03T04:25:04.426Z,14.03
2018-05-03T04:26:04.369Z,14.04
2018-05-03T04:27:04.301Z,13.93
2018-05-03T04:28:04.238Z,14.07
2018-05-03T04:29:04.177Z,14.03
2018-05-03T04:30:04.111Z,13.95
2018-05-03T04:31:04.048Z,13.85
2018-05-03T04:32:03.991Z,13.92
2018-05-03T04:33:03.919Z,13.86
2018-05-03T04:34:03.864Z,14.00
2018-05-03T04:35:03.789Z,13.87
2018-05-03T04:36:03.726Z,13.87
2018-05-03T04:37:03.664Z,13.86
2018-05-03T04:38:03.601Z,13.86
2018-05-03T04:39:03.538Z,13.85
2018-05-03T04:40:03.475Z,13.81
2018-05-03T04:41:03.411Z,13.75
2018-05-03T04:42:03.349Z,13.67
2018-05-03T04:43:03.282Z,13.65
2018-05-03T04:44:03.218Z,13.63
2018-05-03T04:45:03.155Z,13.62
2018-05-03T04:46:03.091Z,13.59
2018-05-03T04:47:03.124Z,13.63
2018-05-03T04:48:02.966Z,13.65
2018-05-03T04:49:02.905Z,13.70
2018-05-03T04:50:02.838Z,13.74
2018-05-03T04:51:02.781Z,13.74
2018-05-03T04:52:02.712Z,13.67
2018-05-03T04:53:02.647Z,13.67
2018-05-03T04:54:02.594Z,13.67
2018-05-03T04:55:02.518Z,13.67
2018-05-03T04:56:02.455Z,13.75
2018-05-03T04:57:02.391Z,13.74
2018-05-03T04:58:02.327Z,13.93
2018-05-03T04:59:02.268Z,13.97
2018-05-03T05:00:02.203Z,13.93
2018-05-03T05:01:02.139Z,13.81
2018-05-03T05:02:02.076Z,13.86
2018-05-03T05:03:02.008Z,13.81
2018-05-03T05:04:01.948Z,13.85
2018-05-03T05:05:01.883Z,13.75
2018-05-03T05:06:01.830Z,13.77
2018-05-03T05:07:01.756Z,13.83
2018-05-03T05:08:01.692Z,13.92
2018-05-03T05:09:01.629Z,13.95
2018-05-03T05:10:01.568Z,13.89
2018-05-03T05:11:01.499Z,13.92
2018-05-03T05:12:01.439Z,13.90
2018-05-03T05:13:01.377Z,13.92
2018-05-03T05:14:01.311Z,13.90
2018-05-03T05:15:01.244Z,13.93
2018-05-03T05:16:01.182Z,13.86
2018-05-03T05:17:01.120Z,13.74
2018-05-03T05:18:01.142Z,13.68
2018-05-03T05:19:00.994Z,13.62
2018-05-03T05:20:00.933Z,13.53
2018-05-03T05:21:00.865Z,13.38
2018-05-03T05:22:00.799Z,13.30
2018-05-03T05:23:00.734Z,13.19
2018-05-03T05:24:00.687Z,13.37
2018-05-03T05:25:00.611Z,13.37
2018-05-03T05:26:00.547Z,13.47
2018-05-03T05:27:00.482Z,13.59
2018-05-03T05:28:00.420Z,13.67
2018-05-03T05:29:00.354Z,13.68
2018-05-03T05:30:00.294Z,13.77
2018-05-03T05:31:00.233Z,13.81
2018-05-03T05:32:00.163Z,13.81
2018-05-03T05:33:00.097Z,13.93
2018-05-03T05:34:00.036Z,14.03
2018-05-03T05:34:59.972Z,14.04
2018-05-03T05:35:59.912Z,14.04
2018-05-03T05:36:59.851Z,14.10
2018-05-03T05:37:59.796Z,14.05
2018-05-03T05:38:59.762Z,14.07
2018-05-03T05:39:59.651Z,14.10
2018-05-03T05:40:59.597Z,14.03
2018-05-03T05:41:59.552Z,13.87
2018-05-03T05:42:59.462Z,14.07
2018-05-03T05:43:59.402Z,14.29
2018-05-03T05:44:59.337Z,14.30
2018-05-03T05:45:59.313Z,14.45
2018-05-03T05:46:59.215Z,14.37
2018-05-03T05:47:59.145Z,14.37
2018-05-03T05:48:59.079Z,14.44
2018-05-03T05:49:59.025Z,14.37
2018-05-03T05:50:59.020Z,14.40
2018-05-03T05:51:58.891Z,14.36
2018-05-03T05:52:58.827Z,14.45
2018-05-03T05:53:58.768Z,14.63
2018-05-03T05:54:58.714Z,14.72
2018-05-03T05:55:58.644Z,14.50
2018-05-03T05:56:58.580Z,14.53
2018-05-03T05:57:58.516Z,14.62
2018-05-03T05:58:58.447Z,14.55
2018-05-03T05:59:58.385Z,14.62
2018-05-03T06:00:58.325Z,14.68
2018-05-03T06:01:58.261Z,14.65
2018-05-03T06:02:58.198Z,14.63
2018-05-03T06:03:58.130Z,14.66
2018-05-03T06:04:58.073Z,14.78
2018-05-03T06:05:58.010Z,14.72
2018-05-03T06:06:57.943Z,14.77
2018-05-03T06:07:57.887Z,14.78
2018-05-03T06:08:57.830Z,14.81
2018-05-03T06:09:57.759Z,14.89
2018-05-03T06:10:57.693Z,14.97
2018-05-03T06:11:57.628Z,15.04
2018-05-03T06:12:57.565Z,15.03
2018-05-03T06:13:57.503Z,14.99
2018-05-03T06:14:57.443Z,14.99
2018-05-03T06:15:57.379Z,14.70
2018-05-03T06:16:57.319Z,14.66
2018-05-03T06:17:57.254Z,14.62
2018-05-03T06:18:57.187Z,14.73
2018-05-03T06:19:57.127Z,14.79
2018-05-03T06:20:57.061Z,14.70
2018-05-03T06:21:57.000Z,14.72
2018-05-03T06:22:56.943Z,14.85
2018-05-03T06:23:56.884Z,14.88
2018-05-03T06:24:56.812Z,14.94
2018-05-03T06:25:56.768Z,15.07
2018-05-03T06:26:56.694Z,15.06
2018-05-03T06:27:56.625Z,14.99
2018-05-03T06:28:56.569Z,15.02
2018-05-03T06:29:56.515Z,15.04
2018-05-03T06:30:56.435Z,15.09
2018-05-03T06:31:56.376Z,15.04
2018-05-03T06:32:56.322Z,15.06
2018-05-03T06:33:56.248Z,15.18
2018-05-03T06:34:56.189Z,15.21
2018-05-03T06:35:56.139Z,15.18
2018-05-03T06:36:56.061Z,15.07
2018-05-03T06:37:56.000Z,15.07
2018-05-03T06:38:55.936Z,15.18
2018-05-03T06:39:55.872Z,15.19
2018-05-03T06:40:55.816Z,15.42
2018-05-03T06:41:55.748Z,15.43
2018-05-03T06:42:55.687Z,15.58
2018-05-03T06:43:55.698Z,15.67
2018-05-03T06:44:55.559Z,15.64
2018-05-03T06:45:55.545Z,15.65
2018-05-03T06:46:55.441Z,15.46
2018-05-03T06:47:55.374Z,15.52
2018-05-03T06:48:55.316Z,15.44
2018-05-03T06:49:55.251Z,15.62
2018-05-03T06:50:55.185Z,15.75
2018-05-03T06:51:55.127Z,15.68
2018-05-03T06:52:55.061Z,15.77
2018-05-03T06:53:54.998Z,15.92
2018-05-03T06:54:54.945Z,15.97
2018-05-03T06:55:54.873Z,16.10
2018-05-03T06:56:54.812Z,16.15
2018-05-03T06:57:54.750Z,16.13
2018-05-03T06:58:54.688Z,16.17
2018-05-03T06:59:54.630Z,16.21
2018-05-03T07:00:54.563Z,16.05
2018-05-03T07:01:54.505Z,16.15
2018-05-03T07:02:54.439Z,16.12
2018-05-03T07:03:54.458Z,16.12
2018-05-03T07:04:54.316Z,16.04
2018-05-03T07:05:54.250Z,15.90
2018-05-03T07:06:54.201Z,15.94
2018-05-03T07:07:54.131Z,15.90
2018-05-03T07:08:54.068Z,15.91
2018-05-03T07:09:54.052Z,16.01
2018-05-03T07:10:53.945Z,16.08
2018-05-03T07:11:53.881Z,16.10
2018-05-03T07:12:53.820Z,16.12
2018-05-03T07:13:53.759Z,16.13
2018-05-03T07:14:53.696Z,15.97
2018-05-03T07:15:53.639Z,15.94
2018-05-03T07:16:53.578Z,15.88
2018-05-03T07:17:53.511Z,15.82
2018-05-03T07:18:53.568Z,15.91
2018-05-03T07:19:53.475Z,16.01
2018-05-03T07:20:53.338Z,15.92
2018-05-03T07:21:53.271Z,16.08
2018-05-03T07:22:53.204Z,16.10
2018-05-03T07:23:53.169Z,16.15
2018-05-03T07:24:53.080Z,16.26
2018-05-03T07:25:53.018Z,16.35
2018-05-03T07:26:52.963Z,16.43
2018-05-03T07:27:52.896Z,16.53
2018-05-03T07:28:52.833Z,16.64
2018-05-03T07:29:52.771Z,16.72
2018-05-03T07:30:52.732Z,16.86
2018-05-03T07:31:52.650Z,17.09
2018-05-03T07:32:52.590Z,17.11
2018-05-03T07:33:52.531Z,17.30
2018-05-03T07:34:52.476Z,17.44
2018-05-03T07:35:52.400Z,17.57
2018-05-03T07:36:52.339Z,17.72
2018-05-03T07:37:52.280Z,17.59
2018-05-03T07:38:52.225Z,17.54
2018-05-03T07:39:52.162Z,17.57
2018-05-03T07:40:52.143Z,17.46
2018-05-03T07:41:52.042Z,17.51
2018-05-03T07:42:51.974Z,17.27
2018-05-03T07:43:51.913Z,17.16
2018-05-03T07:44:51.863Z,17.24
2018-05-03T07:45:51.794Z,17.24
2018-05-03T07:46:51.732Z,17.16
2018-05-03T07:47:51.681Z,17.19
2018-05-03T07:48:51.609Z,17.19
2018-05-03T07:49:51.550Z,17.26
2018-05-03T07:50:51.493Z,17.34
2018-05-03T07:51:51.428Z,17.31
2018-05-03T07:52:51.382Z,17.39
2018-05-03T07:53:51.320Z,17.34
2018-05-03T07:54:51.248Z,17.42
2018-05-03T07:55:51.187Z,17.30
2018-05-03T07:56:51.128Z,17.36
2018-05-03T07:57:51.062Z,17.12
2018-05-03T07:58:51.013Z,16.90
2018-05-03T07:59:50.945Z,16.96
2018-05-03T08:00:50.929Z,16.87
2018-05-03T08:01:50.829Z,16.84
2018-05-03T08:02:50.762Z,16.74
2018-05-03T08:03:50.705Z,16.74
2018-05-03T08:04:50.640Z,16.64
2018-05-03T08:05:50.587Z,16.71
2018-05-03T08:06:50.524Z,16.79
2018-05-03T08:07:50.458Z,16.69
2018-05-03T08:08:50.404Z,16.72
2018-05-03T08:09:50.338Z,16.69
2018-05-03T08:10:50.276Z,16.71
2018-05-03T08:11:50.216Z,16.64
2018-05-03T08:12:50.156Z,16.53
2018-05-03T08:13:50.096Z,16.54
2018-05-03T08:14:50.031Z,16.36
2018-05-03T08:15:49.970Z,16.43
2018-05-03T08:16:49.911Z,16.39
2018-05-03T08:17:49.851Z,16.54
2018-05-03T08:18:49.781Z,16.53
2018-05-03T08:19:49.725Z,16.57
2018-05-03T08:20:49.664Z,16.69
2018-05-03T08:21:49.640Z,16.81
2018-05-03T08:22:49.544Z,16.78
2018-05-03T08:23:49.488Z,16.84
2018-05-03T08:24:49.848Z,16.74
2018-05-03T08:25:49.361Z,16.79
2018-05-03T08:26:49.296Z,16.74
2018-05-03T08:27:49.235Z,16.81
2018-05-03T08:28:49.176Z,16.87
2018-05-03T08:29:49.114Z,16.76
2018-05-03T08:30:49.058Z,16.81
2018-05-03T08:31:49.052Z,16.87
2018-05-03T08:32:48.929Z,16.91
2018-05-03T08:33:48.868Z,16.91
2018-05-03T08:34:48.808Z,17.08
2018-05-03T08:35:48.755Z,17.05
2018-05-03T08:36:48.687Z,17.16
2018-05-03T08:37:48.627Z,17.16
2018-05-03T08:38:48.560Z,17.19
2018-05-03T08:39:48.505Z,17.23
2018-05-03T08:40:48.445Z,17.27
2018-05-03T08:41:48.379Z,17.23
2018-05-03T08:42:48.320Z,17.33
2018-05-03T08:43:48.261Z,17.30
2018-05-03T08:44:48.199Z,17.42
2018-05-03T08:45:48.136Z,17.39
2018-05-03T08:46:48.074Z,17.46
2018-05-03T08:47:48.013Z,17.42
2018-05-03T08:48:47.960Z,17.45
2018-05-03T08:49:47.894Z,17.52
2018-05-03T08:50:47.828Z,17.59
2018-05-03T08:51:47.773Z,17.54
2018-05-03T08:52:47.716Z,17.65
2018-05-03T08:53:47.648Z,17.70
2018-05-03T08:54:47.590Z,17.68
2018-05-03T08:55:47.570Z,17.54
2018-05-03T08:56:47.471Z,17.54
2018-05-03T08:57:47.409Z,17.65
2018-05-03T08:58:47.339Z,17.70
2018-05-03T08:59:47.285Z,17.70
2018-05-03T09:00:47.224Z,17.80
2018-05-03T09:01:47.241Z,17.82
2018-05-03T09:02:47.107Z,17.92
2018-05-03T09:03:47.043Z,18.11
2018-05-03T09:04:47.084Z,18.08
2018-05-03T09:05:46.961Z,18.11
2018-05-03T09:06:46.863Z,17.98
2018-05-03T09:07:46.827Z,17.86
2018-05-03T09:08:46.746Z,17.72
2018-05-03T09:09:46.683Z,17.71
2018-05-03T09:10:46.621Z,17.60
2018-05-03T09:11:46.564Z,17.54
2018-05-03T09:12:46.499Z,17.56
2018-05-03T09:13:46.438Z,17.63
2018-05-03T09:14:46.386Z,17.54
2018-05-03T09:15:46.336Z,17.49
2018-05-03T09:16:46.260Z,17.63
2018-05-03T09:17:46.202Z,17.71
2018-05-03T09:18:46.141Z,17.65
2018-05-03T09:19:46.075Z,17.80
2018-05-03T09:20:46.033Z,17.85
2018-05-03T09:21:45.962Z,17.87
2018-05-03T09:22:45.904Z,17.71
2018-05-03T09:23:45.845Z,17.65
2018-05-03T09:24:45.773Z,17.70
2018-05-03T09:25:45.717Z,17.65
2018-05-03T09:26:45.696Z,17.67
2018-05-03T09:27:45.599Z,17.54
2018-05-03T09:28:45.542Z,17.57
2018-05-03T09:29:45.475Z,17.57
2018-05-03T09:30:45.416Z,17.63
2018-05-03T09:31:45.355Z,17.68
2018-05-03T09:32:45.295Z,17.65
2018-05-03T09:33:45.236Z,17.70
2018-05-03T09:34:45.192Z,17.76
2018-05-03T09:35:45.118Z,17.92
2018-05-03T09:36:45.056Z,18.10
2018-05-03T09:37:44.997Z,18.29
2018-05-03T09:38:44.937Z,18.59
2018-05-03T09:39:44.879Z,18.78
2018-05-03T09:40:44.815Z,19.02
2018-05-03T09:41:44.762Z,19.27
2018-05-03T09:42:44.695Z,19.49
2018-05-03T09:43:44.643Z,19.69
2018-05-03T09:44:44.594Z,19.84
2018-05-03T09:45:44.516Z,19.89
2018-05-03T09:46:44.468Z,19.86
2018-05-03T09:47:44.411Z,19.82
2018-05-03T09:48:44.340Z,19.88
2018-05-03T09:49:44.285Z,20.07
2018-05-03T09:50:44.221Z,20.32
2018-05-03T09:51:44.163Z,20.47
2018-05-03T09:52:44.109Z,20.56
2018-05-03T09:53:44.052Z,20.65
2018-05-03T09:54:43.987Z,20.72
2018-05-03T09:55:43.928Z,20.82
2018-05-03T09:56:43.868Z,20.69
2018-05-03T09:57:43.819Z,20.72
2018-05-03T09:58:43.757Z,20.63
2018-05-03T09:59:43.696Z,20.40
2018-05-03T10:00:43.644Z,20.31
2018-05-03T10:01:43.585Z,20.10
2018-05-03T10:02:43.522Z,19.89
2018-05-03T10:03:43.470Z,19.62
2018-05-03T10:04:43.426Z,19.37
2018-05-03T10:05:43.351Z,19.27
2018-05-03T10:06:43.295Z,19.18
2018-05-03T10:07:43.239Z,19.16
2018-05-03T10:08:43.176Z,19.08
2018-05-03T10:09:43.122Z,19.07
2018-05-03T10:10:43.068Z,18.98
2018-05-03T10:11:43.009Z,18.92
2018-05-03T10:12:42.949Z,18.86
2018-05-03T10:13:42.893Z,18.74
2018-05-03T10:14:42.954Z,18.77
2018-05-03T10:15:42.769Z,18.75
2018-05-03T10:16:42.718Z,18.66
2018-05-03T10:17:42.654Z,18.73
2018-05-03T10:18:42.602Z,18.68
2018-05-03T10:19:42.539Z,18.74
2018-05-03T10:20:42.485Z,18.75
2018-05-03T10:21:42.422Z,18.75
2018-05-03T10:22:42.359Z,18.80
2018-05-03T10:23:42.301Z,18.95
2018-05-03T10:24:42.246Z,18.90
2018-05-03T10:25:42.199Z,19.04
2018-05-03T10:26:42.128Z,19.08
2018-05-03T10:27:42.065Z,19.00
2018-05-03T10:28:42.006Z,18.98
2018-05-03T10:29:41.951Z,18.95
2018-05-03T10:30:41.893Z,18.92
2018-05-03T10:31:41.830Z,18.98
2018-05-03T10:32:41.771Z,19.04
2018-05-03T10:33:41.722Z,18.93
2018-05-03T10:34:41.665Z,19.00
2018-05-03T10:35:41.667Z,19.09
2018-05-03T10:36:41.535Z,19.02
2018-05-03T10:37:41.479Z,19.04
2018-05-03T10:38:41.418Z,18.92
2018-05-03T10:39:41.382Z,19.02
2018-05-03T10:40:41.308Z,19.04
2018-05-03T10:41:41.240Z,19.09
2018-05-03T10:42:41.188Z,19.14
2018-05-03T10:43:41.122Z,19.19
2018-05-03T10:44:41.063Z,19.18
2018-05-03T10:45:41.002Z,19.19
2018-05-03T10:46:40.951Z,19.19
2018-05-03T10:47:40.883Z,19.19
2018-05-03T10:48:40.935Z,19.26
2018-05-03T10:49:40.765Z,19.22
2018-05-03T10:50:40.706Z,19.24
2018-05-03T10:51:40.659Z,19.33
2018-05-03T10:52:40.595Z,19.29
2018-05-03T10:53:40.539Z,19.34
2018-05-03T10:54:40.466Z,19.47
2018-05-03T10:55:40.412Z,19.51
2018-05-03T10:56:40.367Z,19.58
2018-05-03T10:57:40.293Z,19.66
2018-05-03T10:58:40.235Z,19.73
2018-05-03T10:59:40.180Z,19.89
2018-05-03T11:00:40.121Z,20.02
2018-05-03T11:01:40.058Z,20.09
2018-05-03T11:02:40.007Z,20.11
2018-05-03T11:03:39.946Z,20.00
2018-05-03T11:04:39.887Z,20.07
2018-05-03T11:05:39.825Z,20.28
2018-05-03T11:06:39.769Z,20.36
2018-05-03T11:07:39.711Z,20.58
2018-05-03T11:08:39.655Z,20.60
2018-05-03T11:09:39.597Z,20.81
2018-05-03T11:10:39.539Z,20.80
2018-05-03T11:11:39.492Z,20.88
2018-05-03T11:12:39.426Z,20.93
2018-05-03T11:13:39.369Z,21.11
2018-05-03T11:14:39.316Z,21.05
2018-05-03T11:15:39.261Z,20.93
2018-05-03T11:16:39.271Z,20.84
2018-05-03T11:17:39.155Z,20.84
2018-05-03T11:18:39.096Z,20.93
2018-05-03T11:19:39.042Z,20.82
2018-05-03T11:20:38.997Z,21.00
2018-05-03T11:21:38.935Z,21.17
2018-05-03T11:22:38.893Z,21.24
2018-05-03T11:23:38.840Z,21.43
2018-05-03T11:24:38.773Z,21.66
2018-05-03T11:25:38.731Z,21.72
2018-05-03T11:26:38.667Z,21.72
2018-05-03T11:27:38.652Z,21.85
2018-05-03T11:28:38.569Z,21.89
2018-05-03T11:29:38.514Z,22.00
2018-05-03T11:30:38.492Z,22.22
2018-05-03T11:31:38.412Z,22.25
2018-05-03T11:32:38.360Z,22.33
2018-05-03T11:33:38.302Z,22.17
2018-05-03T11:34:38.262Z,22.22
2018-05-03T11:35:38.203Z,22.23
2018-05-03T11:36:38.157Z,22.35
2018-05-03T11:37:38.100Z,22.47
2018-05-03T11:38:38.048Z,22.70
2018-05-03T11:41:11.107Z,22.70
2018-05-03T11:42:10.982Z,22.72
2018-05-03T11:44:05.314Z,23.05
2018-05-03T11:45:05.228Z,23.24
2018-05-03T11:46:05.194Z,23.34
2018-05-03T11:47:05.134Z,23.17
2018-05-03T11:48:05.078Z,23.06
2018-05-03T11:49:05.045Z,22.75
2018-05-03T11:50:04.981Z,22.35
2018-05-03T11:51:04.931Z,22.35
2018-05-03T11:52:04.919Z,22.36
2018-05-03T11:53:04.846Z,22.15
2018-05-03T11:54:04.781Z,22.06
2018-05-03T11:55:04.730Z,21.91
2018-05-03T11:56:04.688Z,21.92
2018-05-03T11:57:04.634Z,21.93
2018-05-03T11:58:04.583Z,21.95
2018-05-03T11:59:04.630Z,21.89
2018-05-03T12:00:04.485Z,22.00
2018-05-03T12:01:04.436Z,22.18
2018-05-03T12:02:04.386Z,22.29
2018-05-03T12:03:04.337Z,22.39
2018-05-03T12:04:04.301Z,22.33
2018-05-03T12:05:04.243Z,22.43
2018-05-03T12:06:04.276Z,22.48
2018-05-03T12:07:04.145Z,22.55
2018-05-03T12:08:04.095Z,22.65
2018-05-03T12:09:04.064Z,22.69
2018-05-03T12:10:04.002Z,22.83
2018-05-03T12:11:03.959Z,22.81
2018-05-03T12:12:03.998Z,22.75
2018-05-03T12:13:03.867Z,22.84
2018-05-03T12:14:03.816Z,22.76
2018-05-03T12:15:03.773Z,22.51
2018-05-03T12:16:03.741Z,22.72
2018-05-03T12:17:03.696Z,22.73
2018-05-03T12:18:03.633Z,23.06
2018-05-03T12:19:03.589Z,23.15
2018-05-03T12:20:03.541Z,22.91
2018-05-03T12:21:03.496Z,22.80
2018-05-03T12:22:03.446Z,22.81
2018-05-03T12:23:03.406Z,22.94
2018-05-03T12:24:03.363Z,23.05
2018-05-03T12:25:03.322Z,23.46
2018-05-03T12:26:03.294Z,23.55
2018-05-03T12:27:03.223Z,23.56
2018-05-03T12:28:03.175Z,23.46
2018-05-03T12:29:03.134Z,23.32
2018-05-03T12:30:03.089Z,23.40
2018-05-03T12:31:03.047Z,23.37
2018-05-03T12:32:02.993Z,23.18
2018-05-03T12:33:02.952Z,23.50
2018-05-03T12:34:02.908Z,23.78
2018-05-03T12:35:02.865Z,23.86
2018-05-03T12:36:02.823Z,23.95
2018-05-03T12:37:02.776Z,24.14
2018-05-03T12:38:02.732Z,24.05
2018-05-03T12:39:02.684Z,23.98
2018-05-03T12:40:02.639Z,23.81
2018-05-03T12:41:02.597Z,24.11
2018-05-03T12:42:02.549Z,24.20
2018-05-03T12:43:02.511Z,24.39
2018-05-03T12:44:02.509Z,24.39
2018-05-03T12:45:02.417Z,24.39
2018-05-03T12:46:02.370Z,24.45
2018-05-03T12:47:02.331Z,24.55
2018-05-03T12:48:02.283Z,24.32
2018-05-03T12:49:02.244Z,24.11
2018-05-03T12:50:02.194Z,24.02
2018-05-03T12:51:02.150Z,24.03
2018-05-03T12:52:02.105Z,23.95
2018-05-03T12:53:02.063Z,23.98
2018-05-03T12:54:02.020Z,24.17